sensor_id;sensor_type;location;lat;lon;timestamp;temperature;humidity
45383;DHT22;42455;51.660;5.824;2023-09-19T00:01:04;17.8;93.5
45383;DHT22;42455;51.660;5.824;2023-09-19T00:06:10;17.8;93.5
45383;DHT22;42455;51.660;5.824;2023-09-19T00:11:16;17.7;93.5
45383;DHT22;42455;51.660;5.824;2023-09-19T00:16:23;17.7;93.5
45383;DHT22;42455;51.660;5.824;2023-09-19T00:21:31;17.7;93.5
45383;DHT22;42455;51.660;5.824;2023-09-19T00:26:35;17.7;93.5
45383;DHT22;42455;51.660;5.824;2023-09-19T00:31:42;17.6;93.5
45383;DHT22;42455;51.660;5.824;2023-09-19T00:36:47;17.6;93.5
45383;DHT22;42455;51.660;5.824;2023-09-19T00:41:54;17.5;93.5
45383;DHT22;42455;51.660;5.824;2023-09-19T00:47:00;17.5;93.5
45383;DHT22;42455;51.660;5.824;2023-09-19T00:52:06;17.4;93.5
45383;DHT22;42455;51.660;5.824;2023-09-19T00:57:12;17.4;93.5
45383;DHT22;42455;51.660;5.824;2023-09-19T01:02:19;17.3;93.5
45383;DHT22;42455;51.660;5.824;2023-09-19T01:07:25;17.3;93.5
45383;DHT22;42455;51.660;5.824;2023-09-19T01:13:21;17.2;93.5
45383;DHT22;42455;51.660;5.824;2023-09-19T01:21:42;17.2;93.5
45383;DHT22;42455;51.660;5.824;2023-09-19T01:29:50;17.2;93.5
45383;DHT22;42455;51.660;5.824;2023-09-19T01:31:23;17.2;93.5
45383;DHT22;42455;51.660;5.824;2023-09-19T01:32:56;17.2;93.5
45383;DHT22;42455;51.660;5.824;2023-09-19T01:38:02;17.1;93.5
45383;DHT22;42455;51.660;5.824;2023-09-19T01:43:50;17.1;93.5
45383;DHT22;42455;51.660;5.824;2023-09-19T01:48:56;17.1;93.5
45383;DHT22;42455;51.660;5.824;2023-09-19T01:54:04;17.1;93.5
45383;DHT22;42455;51.660;5.824;2023-09-19T01:58:59;17.0;93.5
45383;DHT22;42455;51.660;5.824;2023-09-19T02:03:33;17.0;93.5
45383;DHT22;42455;51.660;5.824;2023-09-19T02:08:38;17.0;93.0
45383;DHT22;42455;51.660;5.824;2023-09-19T02:13:44;16.9;93.0
45383;DHT22;42455;51.660;5.824;2023-09-19T02:18:51;16.9;93.0
45383;DHT22;42455;51.660;5.824;2023-09-19T02:23:57;16.8;93.0
45383;DHT22;42455;51.660;5.824;2023-09-19T02:29:03;16.8;92.5
45383;DHT22;42455;51.660;5.824;2023-09-19T02:34:09;16.8;92.5
45383;DHT22;42455;51.660;5.824;2023-09-19T02:39:15;16.7;92.5
45383;DHT22;42455;51.660;5.824;2023-09-19T02:44:22;16.7;92.5
45383;DHT22;42455;51.660;5.824;2023-09-19T02:49:28;16.6;92.5
45383;DHT22;42455;51.660;5.824;2023-09-19T02:54:34;16.6;92.5
45383;DHT22;42455;51.660;5.824;2023-09-19T02:59:40;16.5;92.5
45383;DHT22;42455;51.660;5.824;2023-09-19T03:04:46;16.5;92.5
45383;DHT22;42455;51.660;5.824;2023-09-19T03:09:53;16.4;92.0
45383;DHT22;42455;51.660;5.824;2023-09-19T03:14:59;16.4;92.5
45383;DHT22;42455;51.660;5.824;2023-09-19T03:20:05;16.4;92.0
45383;DHT22;42455;51.660;5.824;2023-09-19T03:25:12;16.3;92.0
45383;DHT22;42455;51.660;5.824;2023-09-19T03:30:17;16.3;92.0
45383;DHT22;42455;51.660;5.824;2023-09-19T03:35:24;16.2;92.0
45383;DHT22;42455;51.660;5.824;2023-09-19T03:40:30;16.2;92.0
45383;DHT22;42455;51.660;5.824;2023-09-19T03:45:36;16.2;92.0
45383;DHT22;42455;51.660;5.824;2023-09-19T03:50:42;16.1;91.5
45383;DHT22;42455;51.660;5.824;2023-09-19T03:55:49;16.1;91.5
45383;DHT22;42455;51.660;5.824;2023-09-19T04:00:55;16.1;91.5
45383;DHT22;42455;51.660;5.824;2023-09-19T04:06:01;16.1;91.5
45383;DHT22;42455;51.660;5.824;2023-09-19T04:11:07;16.1;91.5
45383;DHT22;42455;51.660;5.824;2023-09-19T04:16:13;16.1;91.5
45383;DHT22;42455;51.660;5.824;2023-09-19T04:21:20;16.1;91.5
45383;DHT22;42455;51.660;5.824;2023-09-19T04:26:26;16.0;91.5
45383;DHT22;42455;51.660;5.824;2023-09-19T04:31:32;16.0;91.5
45383;DHT22;42455;51.660;5.824;2023-09-19T04:36:38;16.0;91.5
45383;DHT22;42455;51.660;5.824;2023-09-19T04:41:44;16.0;91.5
45383;DHT22;42455;51.660;5.824;2023-09-19T04:46:51;15.9;91.5
45383;DHT22;42455;51.660;5.824;2023-09-19T04:51:57;15.9;91.5
45383;DHT22;42455;51.660;5.824;2023-09-19T04:57:03;15.9;92.0
45383;DHT22;42455;51.660;5.824;2023-09-19T05:02:09;15.9;92.0
45383;DHT22;42455;51.660;5.824;2023-09-19T05:07:15;15.9;92.0
45383;DHT22;42455;51.660;5.824;2023-09-19T05:12:22;15.9;92.0
45383;DHT22;42455;51.660;5.824;2023-09-19T05:17:28;16.0;92.0
45383;DHT22;42455;51.660;5.824;2023-09-19T05:22:34;16.0;92.5
45383;DHT22;42455;51.660;5.824;2023-09-19T05:27:40;16.0;92.5
45383;DHT22;42455;51.660;5.824;2023-09-19T05:32:47;16.1;92.5
45383;DHT22;42455;51.660;5.824;2023-09-19T05:37:54;16.1;92.5
45383;DHT22;42455;51.660;5.824;2023-09-19T05:42:59;16.1;92.5
45383;DHT22;42455;51.660;5.824;2023-09-19T05:48:08;16.1;92.5
45383;DHT22;42455;51.660;5.824;2023-09-19T05:53:11;16.1;92.5
45383;DHT22;42455;51.660;5.824;2023-09-19T05:58:17;16.1;92.5
45383;DHT22;42455;51.660;5.824;2023-09-19T06:03:24;16.2;92.5
45383;DHT22;42455;51.660;5.824;2023-09-19T06:08:30;16.2;92.5
45383;DHT22;42455;51.660;5.824;2023-09-19T06:13:36;16.2;93.0
45383;DHT22;42455;51.660;5.824;2023-09-19T06:18:42;16.3;93.0
45383;DHT22;42455;51.660;5.824;2023-09-19T06:23:49;16.3;93.0
45383;DHT22;42455;51.660;5.824;2023-09-19T06:28:55;16.4;93.0
45383;DHT22;42455;51.660;5.824;2023-09-19T06:34:01;16.4;93.0
45383;DHT22;42455;51.660;5.824;2023-09-19T06:39:08;16.5;93.0
45383;DHT22;42455;51.660;5.824;2023-09-19T06:44:13;16.5;93.0
45383;DHT22;42455;51.660;5.824;2023-09-19T06:49:20;16.6;93.0
45383;DHT22;42455;51.660;5.824;2023-09-19T06:54:26;16.6;93.0
45383;DHT22;42455;51.660;5.824;2023-09-19T06:59:32;16.7;93.0
45383;DHT22;42455;51.660;5.824;2023-09-19T07:04:38;16.8;93.0
45383;DHT22;42455;51.660;5.824;2023-09-19T07:09:44;16.8;93.0
45383;DHT22;42455;51.660;5.824;2023-09-19T07:14:51;16.9;93.0
45383;DHT22;42455;51.660;5.824;2023-09-19T07:19:56;17.0;93.0
45383;DHT22;42455;51.660;5.824;2023-09-19T07:25:02;17.0;93.0
45383;DHT22;42455;51.660;5.824;2023-09-19T07:30:09;17.1;93.0
45383;DHT22;42455;51.660;5.824;2023-09-19T07:35:15;17.2;93.0
45383;DHT22;42455;51.660;5.824;2023-09-19T07:40:21;17.2;93.0
45383;DHT22;42455;51.660;5.824;2023-09-19T07:45:27;17.3;93.0
45383;DHT22;42455;51.660;5.824;2023-09-19T07:50:34;17.4;93.0
45383;DHT22;42455;51.660;5.824;2023-09-19T07:55:38;17.5;93.0
45383;DHT22;42455;51.660;5.824;2023-09-19T08:00:45;17.6;93.0
45383;DHT22;42455;51.660;5.824;2023-09-19T08:05:51;17.8;93.0
45383;DHT22;42455;51.660;5.824;2023-09-19T08:10:57;17.9;93.0
45383;DHT22;42455;51.660;5.824;2023-09-19T08:16:03;18.1;93.0
45383;DHT22;42455;51.660;5.824;2023-09-19T08:21:11;18.3;93.0
45383;DHT22;42455;51.660;5.824;2023-09-19T08:26:16;18.5;92.5
45383;DHT22;42455;51.660;5.824;2023-09-19T08:31:22;18.6;92.0
45383;DHT22;42455;51.660;5.824;2023-09-19T08:36:28;18.7;92.0
45383;DHT22;42455;51.660;5.824;2023-09-19T08:41:34;18.8;91.5
45383;DHT22;42455;51.660;5.824;2023-09-19T08:46:41;18.9;91.5
45383;DHT22;42455;51.660;5.824;2023-09-19T08:52:01;19.0;91.5
45383;DHT22;42455;51.660;5.824;2023-09-19T08:56:54;19.2;91.0
45383;DHT22;42455;51.660;5.824;2023-09-19T09:07:06;19.5;90.5
45383;DHT22;42455;51.660;5.824;2023-09-19T09:12:12;19.5;90.0
45383;DHT22;42455;51.660;5.824;2023-09-19T09:17:18;19.6;90.0
45383;DHT22;42455;51.660;5.824;2023-09-19T09:22:24;19.8;90.0
45383;DHT22;42455;51.660;5.824;2023-09-19T09:27:30;19.9;89.0
45383;DHT22;42455;51.660;5.824;2023-09-19T09:32:36;19.9;89.0
45383;DHT22;42455;51.660;5.824;2023-09-19T09:37:43;20.0;88.5
45383;DHT22;42455;51.660;5.824;2023-09-19T09:42:49;20.1;88.5
45383;DHT22;42455;51.660;5.824;2023-09-19T09:47:55;20.2;88.5
45383;DHT22;42455;51.660;5.824;2023-09-19T09:53:01;20.3;88.0
45383;DHT22;42455;51.660;5.824;2023-09-19T09:58:18;20.5;87.0
45383;DHT22;42455;51.660;5.824;2023-09-19T10:03:19;20.6;87.0
45383;DHT22;42455;51.660;5.824;2023-09-19T10:08:20;20.7;86.5
45383;DHT22;42455;51.660;5.824;2023-09-19T10:13:29;20.9;86.5
45383;DHT22;42455;51.660;5.824;2023-09-19T10:18:37;21.0;86.0
45383;DHT22;42455;51.660;5.824;2023-09-19T10:23:40;21.1;85.0
45383;DHT22;42455;51.660;5.824;2023-09-19T10:28:46;21.2;84.5
45383;DHT22;42455;51.660;5.824;2023-09-19T10:33:51;21.3;84.5
45383;DHT22;42455;51.660;5.824;2023-09-19T10:38:58;21.4;84.5
45383;DHT22;42455;51.660;5.824;2023-09-19T10:44:04;21.7;84.5
45383;DHT22;42455;51.660;5.824;2023-09-19T10:49:11;21.9;83.0
45383;DHT22;42455;51.660;5.824;2023-09-19T10:54:22;21.9;82.5
45383;DHT22;42455;51.660;5.824;2023-09-19T10:59:22;22.0;82.0
45383;DHT22;42455;51.660;5.824;2023-09-19T11:04:33;22.0;82.0
45383;DHT22;42455;51.660;5.824;2023-09-19T11:09:45;22.1;82.0
45383;DHT22;42455;51.660;5.824;2023-09-19T11:14:41;22.2;81.5
45383;DHT22;42455;51.660;5.824;2023-09-19T11:20:22;22.3;80.5
45383;DHT22;42455;51.660;5.824;2023-09-19T11:24:53;22.3;80.5
45383;DHT22;42455;51.660;5.824;2023-09-19T11:30:26;22.3;80.5
45383;DHT22;42455;51.660;5.824;2023-09-19T11:35:08;22.4;80.0
45383;DHT22;42455;51.660;5.824;2023-09-19T11:40:13;22.4;80.0
45383;DHT22;42455;51.660;5.824;2023-09-19T11:46:10;22.5;79.5
45383;DHT22;42455;51.660;5.824;2023-09-19T11:50:25;22.5;79.5
45383;DHT22;42455;51.660;5.824;2023-09-19T11:55:31;22.5;79.5
45383;DHT22;42455;51.660;5.824;2023-09-19T12:00:37;22.6;79.5
45383;DHT22;42455;51.660;5.824;2023-09-19T12:05:43;22.8;79.0
45383;DHT22;42455;51.660;5.824;2023-09-19T12:10:50;23.0;78.5
45383;DHT22;42455;51.660;5.824;2023-09-19T12:15:55;23.1;78.0
45383;DHT22;42455;51.660;5.824;2023-09-19T12:21:01;23.2;77.5
45383;DHT22;42455;51.660;5.824;2023-09-19T12:26:07;23.3;77.0
45383;DHT22;42455;51.660;5.824;2023-09-19T12:31:14;23.3;76.0
45383;DHT22;42455;51.660;5.824;2023-09-19T12:36:20;23.3;76.0
45383;DHT22;42455;51.660;5.824;2023-09-19T12:41:26;23.3;76.0
45383;DHT22;42455;51.660;5.824;2023-09-19T12:46:32;23.3;76.5
45383;DHT22;42455;51.660;5.824;2023-09-19T12:51:38;23.3;76.0
45383;DHT22;42455;51.660;5.824;2023-09-19T12:56:45;23.3;75.0
45383;DHT22;42455;51.660;5.824;2023-09-19T13:02:03;23.2;74.5
45383;DHT22;42455;51.660;5.824;2023-09-19T13:06:57;23.0;75.0
45383;DHT22;42455;51.660;5.824;2023-09-19T13:12:03;22.8;75.5
45383;DHT22;42455;51.660;5.824;2023-09-19T13:17:09;22.7;75.5
45383;DHT22;42455;51.660;5.824;2023-09-19T13:22:37;22.7;76.5
45383;DHT22;42455;51.660;5.824;2023-09-19T13:27:21;22.7;76.5
45383;DHT22;42455;51.660;5.824;2023-09-19T13:32:27;22.8;76.5
45383;DHT22;42455;51.660;5.824;2023-09-19T13:37:33;22.7;76.0
45383;DHT22;42455;51.660;5.824;2023-09-19T13:42:40;22.7;76.5
45383;DHT22;42455;51.660;5.824;2023-09-19T13:47:46;22.6;76.5
45383;DHT22;42455;51.660;5.824;2023-09-19T13:52:52;22.5;77.0
45383;DHT22;42455;51.660;5.824;2023-09-19T13:57:58;22.5;76.5
45383;DHT22;42455;51.660;5.824;2023-09-19T14:03:05;22.4;76.5
45383;DHT22;42455;51.660;5.824;2023-09-19T14:08:11;22.4;77.0
45383;DHT22;42455;51.660;5.824;2023-09-19T14:13:17;22.4;77.0
45383;DHT22;42455;51.660;5.824;2023-09-19T14:18:23;22.5;77.5
45383;DHT22;42455;51.660;5.824;2023-09-19T14:23:33;22.5;77.0
45383;DHT22;42455;51.660;5.824;2023-09-19T14:28:35;22.5;76.5
45383;DHT22;42455;51.660;5.824;2023-09-19T14:33:42;22.6;77.0
45383;DHT22;42455;51.660;5.824;2023-09-19T14:38:52;22.6;77.0
45383;DHT22;42455;51.660;5.824;2023-09-19T14:43:54;22.6;77.0
45383;DHT22;42455;51.660;5.824;2023-09-19T14:49:00;22.5;77.0
45383;DHT22;42455;51.660;5.824;2023-09-19T14:54:06;22.5;77.0
45383;DHT22;42455;51.660;5.824;2023-09-19T14:59:13;22.5;77.0
45383;DHT22;42455;51.660;5.824;2023-09-19T15:04:19;22.4;77.0
45383;DHT22;42455;51.660;5.824;2023-09-19T15:09:25;22.4;77.0
45383;DHT22;42455;51.660;5.824;2023-09-19T15:14:31;22.4;77.5
45383;DHT22;42455;51.660;5.824;2023-09-19T15:19:37;22.3;77.5
45383;DHT22;42455;51.660;5.824;2023-09-19T15:24:44;22.3;78.0
45383;DHT22;42455;51.660;5.824;2023-09-19T15:29:50;22.3;78.0
45383;DHT22;42455;51.660;5.824;2023-09-19T15:34:56;22.2;78.0
45383;DHT22;42455;51.660;5.824;2023-09-19T15:40:02;22.2;78.0
45383;DHT22;42455;51.660;5.824;2023-09-19T15:45:09;22.1;78.0
45383;DHT22;42455;51.660;5.824;2023-09-19T15:50:15;22.1;78.0
45383;DHT22;42455;51.660;5.824;2023-09-19T15:55:21;22.0;78.0
45383;DHT22;42455;51.660;5.824;2023-09-19T16:00:27;22.0;78.5
45383;DHT22;42455;51.660;5.824;2023-09-19T16:05:34;21.9;78.5
45383;DHT22;42455;51.660;5.824;2023-09-19T16:10:40;21.9;78.5
45383;DHT22;42455;51.660;5.824;2023-09-19T16:15:46;21.8;78.5
45383;DHT22;42455;51.660;5.824;2023-09-19T16:20:52;21.7;78.5
45383;DHT22;42455;51.660;5.824;2023-09-19T16:25:59;21.7;78.5
45383;DHT22;42455;51.660;5.824;2023-09-19T16:31:06;21.7;79.0
45383;DHT22;42455;51.660;5.824;2023-09-19T16:36:13;21.6;79.0
45383;DHT22;42455;51.660;5.824;2023-09-19T16:41:18;21.6;79.5
45383;DHT22;42455;51.660;5.824;2023-09-19T16:46:24;21.5;79.5
45383;DHT22;42455;51.660;5.824;2023-09-19T16:51:30;21.5;79.5
45383;DHT22;42455;51.660;5.824;2023-09-19T16:56:36;21.4;79.5
45383;DHT22;42455;51.660;5.824;2023-09-19T17:01:42;21.4;80.0
45383;DHT22;42455;51.660;5.824;2023-09-19T17:06:48;21.3;80.0
45383;DHT22;42455;51.660;5.824;2023-09-19T17:11:54;21.3;80.0
45383;DHT22;42455;51.660;5.824;2023-09-19T17:17:01;21.3;80.5
45383;DHT22;42455;51.660;5.824;2023-09-19T17:22:07;21.2;80.5
45383;DHT22;42455;51.660;5.824;2023-09-19T17:27:13;21.2;80.5
45383;DHT22;42455;51.660;5.824;2023-09-19T17:32:19;21.2;80.5
45383;DHT22;42455;51.660;5.824;2023-09-19T17:37:25;21.1;80.5
45383;DHT22;42455;51.660;5.824;2023-09-19T17:42:31;21.1;81.0
45383;DHT22;42455;51.660;5.824;2023-09-19T17:47:39;21.1;81.0
45383;DHT22;42455;51.660;5.824;2023-09-19T17:52:44;21.0;81.0
45383;DHT22;42455;51.660;5.824;2023-09-19T17:57:50;21.0;81.0
45383;DHT22;42455;51.660;5.824;2023-09-19T18:02:56;21.0;81.0
45383;DHT22;42455;51.660;5.824;2023-09-19T18:08:02;20.9;81.0
45383;DHT22;42455;51.660;5.824;2023-09-19T18:13:09;20.9;81.5
45383;DHT22;42455;51.660;5.824;2023-09-19T18:18:15;20.9;81.5
45383;DHT22;42455;51.660;5.824;2023-09-19T18:23:21;20.9;81.5
45383;DHT22;42455;51.660;5.824;2023-09-19T18:28:27;20.8;81.5
45383;DHT22;42455;51.660;5.824;2023-09-19T18:33:34;20.8;82.0
45383;DHT22;42455;51.660;5.824;2023-09-19T18:38:40;20.8;82.0
45383;DHT22;42455;51.660;5.824;2023-09-19T18:43:46;20.7;82.5
45383;DHT22;42455;51.660;5.824;2023-09-19T18:48:52;20.7;82.5
45383;DHT22;42455;51.660;5.824;2023-09-19T18:53:57;20.6;83.0
45383;DHT22;42455;51.660;5.824;2023-09-19T18:59:04;20.6;83.0
45383;DHT22;42455;51.660;5.824;2023-09-19T19:04:10;20.6;83.0
45383;DHT22;42455;51.660;5.824;2023-09-19T19:09:16;20.5;83.0
45383;DHT22;42455;51.660;5.824;2023-09-19T19:14:22;20.5;83.5
45383;DHT22;42455;51.660;5.824;2023-09-19T19:19:28;20.5;83.5
45383;DHT22;42455;51.660;5.824;2023-09-19T19:24:35;20.5;83.5
45383;DHT22;42455;51.660;5.824;2023-09-19T19:29:41;20.5;83.5
45383;DHT22;42455;51.660;5.824;2023-09-19T19:34:47;20.5;83.5
45383;DHT22;42455;51.660;5.824;2023-09-19T19:39:53;20.5;83.5
45383;DHT22;42455;51.660;5.824;2023-09-19T19:44:59;20.5;84.0
45383;DHT22;42455;51.660;5.824;2023-09-19T19:50:06;20.5;84.0
45383;DHT22;42455;51.660;5.824;2023-09-19T19:55:12;20.5;84.0
45383;DHT22;42455;51.660;5.824;2023-09-19T20:00:18;20.5;84.0
45383;DHT22;42455;51.660;5.824;2023-09-19T20:05:24;20.5;84.0
45383;DHT22;42455;51.660;5.824;2023-09-19T20:10:30;20.4;84.0
45383;DHT22;42455;51.660;5.824;2023-09-19T20:15:37;20.4;84.0
45383;DHT22;42455;51.660;5.824;2023-09-19T20:20:43;20.4;84.0
45383;DHT22;42455;51.660;5.824;2023-09-19T20:25:49;20.4;84.0
45383;DHT22;42455;51.660;5.824;2023-09-19T20:30:55;20.4;84.0
45383;DHT22;42455;51.660;5.824;2023-09-19T20:36:01;20.4;84.0
45383;DHT22;42455;51.660;5.824;2023-09-19T20:41:08;20.4;84.5
45383;DHT22;42455;51.660;5.824;2023-09-19T20:46:14;20.4;84.0
45383;DHT22;42455;51.660;5.824;2023-09-19T20:51:20;20.4;84.5
45383;DHT22;42455;51.660;5.824;2023-09-19T20:56:26;20.4;84.5
45383;DHT22;42455;51.660;5.824;2023-09-19T21:01:33;20.4;84.0
45383;DHT22;42455;51.660;5.824;2023-09-19T21:06:39;20.4;84.0
45383;DHT22;42455;51.660;5.824;2023-09-19T21:11:45;20.4;84.0
45383;DHT22;42455;51.660;5.824;2023-09-19T21:16:51;20.4;84.0
45383;DHT22;42455;51.660;5.824;2023-09-19T21:21:57;20.4;84.0
45383;DHT22;42455;51.660;5.824;2023-09-19T21:27:04;20.4;84.0
45383;DHT22;42455;51.660;5.824;2023-09-19T21:32:10;20.4;84.0
45383;DHT22;42455;51.660;5.824;2023-09-19T21:37:16;20.4;84.0
45383;DHT22;42455;51.660;5.824;2023-09-19T21:42:22;20.4;84.0
45383;DHT22;42455;51.660;5.824;2023-09-19T21:47:28;20.4;84.0
45383;DHT22;42455;51.660;5.824;2023-09-19T21:52:35;20.4;84.0
45383;DHT22;42455;51.660;5.824;2023-09-19T21:57:41;20.4;84.5
45383;DHT22;42455;51.660;5.824;2023-09-19T22:02:47;20.4;84.5
45383;DHT22;42455;51.660;5.824;2023-09-19T22:07:53;20.4;84.5
45383;DHT22;42455;51.660;5.824;2023-09-19T22:12:59;20.4;84.5
45383;DHT22;42455;51.660;5.824;2023-09-19T22:18:06;20.4;84.5
45383;DHT22;42455;51.660;5.824;2023-09-19T22:23:12;20.4;84.5
45383;DHT22;42455;51.660;5.824;2023-09-19T22:28:18;20.4;84.5
45383;DHT22;42455;51.660;5.824;2023-09-19T22:33:24;20.3;84.5
45383;DHT22;42455;51.660;5.824;2023-09-19T22:38:31;20.3;84.5
45383;DHT22;42455;51.660;5.824;2023-09-19T22:43:38;20.3;84.5
45383;DHT22;42455;51.660;5.824;2023-09-19T22:48:43;20.3;85.0
45383;DHT22;42455;51.660;5.824;2023-09-19T22:53:49;20.3;85.0
45383;DHT22;42455;51.660;5.824;2023-09-19T22:58:55;20.3;85.0
45383;DHT22;42455;51.660;5.824;2023-09-19T23:04:03;20.3;85.0
45383;DHT22;42455;51.660;5.824;2023-09-19T23:09:08;20.3;85.0
45383;DHT22;42455;51.660;5.824;2023-09-19T23:14:14;20.2;85.0
45383;DHT22;42455;51.660;5.824;2023-09-19T23:19:20;20.2;85.0
45383;DHT22;42455;51.660;5.824;2023-09-19T23:24:26;20.1;85.0
45383;DHT22;42455;51.660;5.824;2023-09-19T23:29:33;20.1;85.0
45383;DHT22;42455;51.660;5.824;2023-09-19T23:34:39;20.0;85.0
45383;DHT22;42455;51.660;5.824;2023-09-19T23:39:45;20.0;85.5
45383;DHT22;42455;51.660;5.824;2023-09-19T23:44:51;19.9;85.5
45383;DHT22;42455;51.660;5.824;2023-09-19T23:49:57;19.9;85.5
45383;DHT22;42455;51.660;5.824;2023-09-19T23:55:04;19.9;86.0
